PWSweather.com
Personal Weather Stations
Station Observations
KVAGLENALL
West Henrico, Glen Allen, VA 23060-6503

West HenricoGlen Allen, VA 23060-6503

Lat: 37.6554, Lon: -77.5693

Elevation: 273

Station Type: Davis Vantage Pro II

www.glenallenweather.com

High Low Average
Temperature 71.8°F22.1°C 45.2°F7.3°C 57.1°F13.9°C
Dew Point 53.6°F12.0°C 43.0°F6.1°C 48.8°F9.3°C
Winds 8.1 mph 13.0 kmh 0.1 mph 0.2 kmh 2.0 mph SE3.2 kmh SE
Wind Gusts 12.2 mph19.6 kmh 0.1 mph0.2 kmh 4.0 mph6.4 kmh
Humidity 93% 51% 75%
Pressure 30.41 in1029.8 mb 30.31 in1026.4 mb -
Precipitation 0.00 in0.0 mm - -
Hour Temp Dew Point Humidity Winds Wind Gusts Pressure Precip Precip Rate Daily Precip Total
12:00 AM 54.4°F12.4°C 44.8°F7.1°C 70% 1.0 mph N1.6 kmh N 4.1 mph6.6 kmh 30.33 in1027.1 mb 0.00 in0.0 mm 0.00 in0.0 mm 0.00 in0.0 mm
12:15 AM 54.1°F12.3°C 44.9°F7.2°C 71% 2.0 mph NE3.2 kmh NE 5.1 mph8.2 kmh 30.33 in1027.1 mb 0.00 in0.0 mm 0.00 in0.0 mm 0.00 in0.0 mm
12:30 AM 53.8°F12.1°C 44.6°F7.0°C 71% 4.1 mph NNE6.6 kmh NNE 5.1 mph8.2 kmh 30.33 in1027.1 mb 0.00 in0.0 mm 0.00 in0.0 mm 0.00 in0.0 mm
12:45 AM 53.7°F12.1°C 44.9°F7.2°C 72% 2.0 mph NNE3.2 kmh NNE 4.1 mph6.6 kmh 30.33 in1027.1 mb 0.00 in0.0 mm 0.00 in0.0 mm 0.00 in0.0 mm
01:00 AM 53.2°F11.8°C 44.8°F7.1°C 73% 2.0 mph N3.2 kmh N 5.1 mph8.2 kmh 30.33 in1027.1 mb 0.00 in0.0 mm 0.00 in0.0 mm 0.00 in0.0 mm
01:15 AM 52.9°F11.6°C 44.8°F7.1°C 74% 8.1 mph NNE13.0 kmh NNE 8.1 mph13.0 kmh 30.33 in1027.1 mb 0.00 in0.0 mm 0.00 in0.0 mm 0.00 in0.0 mm
01:30 AM 52.4°F11.3°C 45.0°F7.2°C 76% 4.1 mph N6.6 kmh N 5.1 mph8.2 kmh 30.34 in1027.4 mb 0.00 in0.0 mm 0.00 in0.0 mm 0.00 in0.0 mm
01:45 AM 51.8°F11.0°C 44.8°F7.1°C 77% 4.1 mph N6.6 kmh N 5.1 mph8.2 kmh 30.34 in1027.4 mb 0.00 in0.0 mm 0.00 in0.0 mm 0.00 in0.0 mm
02:00 AM 51.1°F10.6°C 44.8°F7.1°C 79% 3.0 mph NNW4.8 kmh NNW 7.1 mph11.4 kmh 30.34 in1027.4 mb 0.00 in0.0 mm 0.00 in0.0 mm 0.00 in0.0 mm
02:15 AM 50.6°F10.3°C 44.6°F7.0°C 80% 3.0 mph N4.8 kmh N 4.1 mph6.6 kmh 30.35 in1027.8 mb 0.00 in0.0 mm 0.00 in0.0 mm 0.00 in0.0 mm
02:30 AM 49.8°F9.9°C 44.5°F6.9°C 82% 1.0 mph N1.6 kmh N 2.1 mph3.4 kmh 30.35 in1027.8 mb 0.00 in0.0 mm 0.00 in0.0 mm 0.00 in0.0 mm
02:45 AM 49.0°F9.4°C 44.4°F6.9°C 84% 3.0 mph N4.8 kmh N 4.1 mph6.6 kmh 30.35 in1027.8 mb 0.00 in0.0 mm 0.00 in0.0 mm 0.00 in0.0 mm
03:00 AM 48.7°F9.3°C 44.4°F6.9°C 85% 1.0 mph NW1.6 kmh NW 2.1 mph3.4 kmh 30.35 in1027.8 mb 0.00 in0.0 mm 0.00 in0.0 mm 0.00 in0.0 mm
03:15 AM 47.8°F8.8°C 43.9°F6.6°C 86% 0.1 mph NNE0.2 kmh NNE 4.1 mph6.6 kmh 30.35 in1027.8 mb 0.00 in0.0 mm 0.00 in0.0 mm 0.00 in0.0 mm
03:30 AM 47.6°F8.7°C 43.7°F6.5°C 86% 1.0 mph NNE1.6 kmh NNE 4.1 mph6.6 kmh 30.35 in1027.8 mb 0.00 in0.0 mm 0.00 in0.0 mm 0.00 in0.0 mm
03:45 AM 47.4°F8.6°C 43.8°F6.6°C 87% 2.0 mph NW3.2 kmh NW 5.1 mph8.2 kmh 30.35 in1027.8 mb 0.00 in0.0 mm 0.00 in0.0 mm 0.00 in0.0 mm
04:00 AM 46.9°F8.3°C 43.6°F6.4°C 88% 2.0 mph N3.2 kmh N 3.1 mph5.0 kmh 30.35 in1027.8 mb 0.00 in0.0 mm 0.00 in0.0 mm 0.00 in0.0 mm
04:15 AM 46.6°F8.1°C 43.6°F6.4°C 89% 3.0 mph NNW4.8 kmh NNW 4.1 mph6.6 kmh 30.35 in1027.8 mb 0.00 in0.0 mm 0.00 in0.0 mm 0.00 in0.0 mm
04:30 AM 47.0°F8.3°C 43.7°F6.5°C 88% 2.0 mph N3.2 kmh N 3.1 mph5.0 kmh 30.35 in1027.8 mb 0.00 in0.0 mm 0.00 in0.0 mm 0.00 in0.0 mm
04:45 AM 46.8°F8.2°C 43.5°F6.4°C 88% 1.0 mph N1.6 kmh N 3.1 mph5.0 kmh 30.36 in1028.1 mb 0.00 in0.0 mm 0.00 in0.0 mm 0.00 in0.0 mm
05:00 AM 46.7°F8.2°C 43.7°F6.5°C 89% 2.0 mph NNE3.2 kmh NNE 3.1 mph5.0 kmh 30.36 in1028.1 mb 0.00 in0.0 mm 0.00 in0.0 mm 0.00 in0.0 mm
05:15 AM 46.6°F8.1°C 43.6°F6.4°C 89% 4.1 mph NNW6.6 kmh NNW 4.1 mph6.6 kmh 30.35 in1027.8 mb 0.00 in0.0 mm 0.00 in0.0 mm 0.00 in0.0 mm
05:30 AM 47.1°F8.4°C 43.8°F6.6°C 88% 3.0 mph N4.8 kmh N 4.1 mph6.6 kmh 30.35 in1027.8 mb 0.00 in0.0 mm 0.00 in0.0 mm 0.00 in0.0 mm
05:45 AM 47.2°F8.4°C 43.6°F6.4°C 87% 2.0 mph NNW3.2 kmh NNW 8.1 mph13.0 kmh 30.35 in1027.8 mb 0.00 in0.0 mm 0.00 in0.0 mm 0.00 in0.0 mm
06:00 AM 47.7°F8.7°C 43.8°F6.6°C 86% 1.0 mph NNE1.6 kmh NNE 5.1 mph8.2 kmh 30.35 in1027.8 mb 0.00 in0.0 mm 0.00 in0.0 mm 0.00 in0.0 mm
06:15 AM 47.4°F8.6°C 44.7°F7.1°C 90% 1.0 mph N1.6 kmh N 4.1 mph6.6 kmh 30.35 in1027.8 mb 0.00 in0.0 mm 0.00 in0.0 mm 0.00 in0.0 mm
06:30 AM 46.8°F8.2°C 44.1°F6.7°C 90% 1.0 mph N1.6 kmh N 2.1 mph3.4 kmh 30.35 in1027.8 mb 0.00 in0.0 mm 0.00 in0.0 mm 0.00 in0.0 mm
06:45 AM 46.4°F8.0°C 44.0°F6.7°C 91% 2.0 mph NNW3.2 kmh NNW 3.1 mph5.0 kmh 30.36 in1028.1 mb 0.00 in0.0 mm 0.00 in0.0 mm 0.00 in0.0 mm
07:00 AM 45.8°F7.7°C 43.4°F6.3°C 91% 0.1 mph N0.2 kmh N 1.1 mph1.8 kmh 30.36 in1028.1 mb 0.00 in0.0 mm 0.00 in0.0 mm 0.00 in0.0 mm
07:15 AM 45.3°F7.4°C 43.1°F6.2°C 92% 0.1 mph NNW0.2 kmh NNW 1.1 mph1.8 kmh 30.37 in1028.4 mb 0.00 in0.0 mm 0.00 in0.0 mm 0.00 in0.0 mm
07:30 AM 45.2°F7.3°C 43.0°F6.1°C 92% 2.0 mph N3.2 kmh N 3.1 mph5.0 kmh 30.37 in1028.4 mb 0.00 in0.0 mm 0.00 in0.0 mm 0.00 in0.0 mm
07:45 AM 45.7°F7.6°C 43.3°F6.3°C 91% 2.0 mph N3.2 kmh N 3.1 mph5.0 kmh 30.38 in1028.8 mb 0.00 in0.0 mm 0.00 in0.0 mm 0.00 in0.0 mm
08:00 AM 46.2°F7.9°C 43.8°F6.6°C 91% 2.0 mph NW3.2 kmh NW 8.1 mph13.0 kmh 30.38 in1028.8 mb 0.00 in0.0 mm 0.00 in0.0 mm 0.00 in0.0 mm
08:15 AM 47.1°F8.4°C 44.1°F6.7°C 89% 2.0 mph NNE3.2 kmh NNE 4.1 mph6.6 kmh 30.38 in1028.8 mb 0.00 in0.0 mm 0.00 in0.0 mm 0.00 in0.0 mm
08:30 AM 50.3°F10.2°C 46.2°F7.9°C 86% 3.0 mph NNW4.8 kmh NNW 8.1 mph13.0 kmh 30.39 in1029.1 mb 0.00 in0.0 mm 0.00 in0.0 mm 0.00 in0.0 mm
08:45 AM 52.2°F11.2°C 47.2°F8.4°C 83% 8.1 mph NNE13.0 kmh NNE 9.1 mph14.6 kmh 30.39 in1029.1 mb 0.00 in0.0 mm 0.00 in0.0 mm 0.00 in0.0 mm
09:00 AM 53.5°F11.9°C 48.1°F8.9°C 82% 4.1 mph N6.6 kmh N 6.1 mph9.8 kmh 30.39 in1029.1 mb 0.00 in0.0 mm 0.00 in0.0 mm 0.00 in0.0 mm
09:15 AM 55.1°F12.8°C 48.7°F9.3°C 79% 4.1 mph NE6.6 kmh NE 7.1 mph11.4 kmh 30.39 in1029.1 mb 0.00 in0.0 mm 0.00 in0.0 mm 0.00 in0.0 mm
09:30 AM 56.3°F13.5°C 49.5°F9.7°C 78% 3.0 mph N4.8 kmh N 5.1 mph8.2 kmh 30.40 in1029.5 mb 0.00 in0.0 mm 0.00 in0.0 mm 0.00 in0.0 mm
09:45 AM 57.2°F14.0°C 49.7°F9.8°C 76% 3.0 mph NE4.8 kmh NE 8.1 mph13.0 kmh 30.40 in1029.5 mb 0.00 in0.0 mm 0.00 in0.0 mm 0.00 in0.0 mm
10:00 AM 58.3°F14.6°C 50.8°F10.4°C 76% 2.0 mph NE3.2 kmh NE 3.1 mph5.0 kmh 30.40 in1029.5 mb 0.00 in0.0 mm 0.00 in0.0 mm 0.00 in0.0 mm
10:15 AM 59.6°F15.3°C 50.9°F10.5°C 73% 3.0 mph NNE4.8 kmh NNE 12.2 mph19.6 kmh 30.41 in1029.8 mb 0.00 in0.0 mm 0.00 in0.0 mm 0.00 in0.0 mm
10:30 AM 60.2°F15.7°C 51.5°F10.8°C 73% 6.1 mph N9.8 kmh N 11.2 mph18.0 kmh 30.41 in1029.8 mb 0.00 in0.0 mm 0.00 in0.0 mm 0.00 in0.0 mm
10:45 AM 61.4°F16.3°C 52.3°F11.3°C 72% 0.1 mph NE0.2 kmh NE 8.1 mph13.0 kmh 30.41 in1029.8 mb 0.00 in0.0 mm 0.00 in0.0 mm 0.00 in0.0 mm
11:00 AM 62.2°F16.8°C 53.1°F11.7°C 72% 1.0 mph W1.6 kmh W 3.1 mph5.0 kmh 30.41 in1029.8 mb 0.00 in0.0 mm 0.00 in0.0 mm 0.00 in0.0 mm
11:15 AM 63.5°F17.5°C 52.4°F11.3°C 67% 3.0 mph NE4.8 kmh NE 7.1 mph11.4 kmh 30.41 in1029.8 mb 0.00 in0.0 mm 0.00 in0.0 mm 0.00 in0.0 mm
11:30 AM 64.8°F18.2°C 53.6°F12.0°C 67% 0.1 mph NW0.2 kmh NW 6.1 mph9.8 kmh 30.40 in1029.5 mb 0.00 in0.0 mm 0.00 in0.0 mm 0.00 in0.0 mm
11:45 AM 66.0°F18.9°C 53.5°F11.9°C 64% 2.0 mph NE3.2 kmh NE 5.1 mph8.2 kmh 30.40 in1029.5 mb 0.00 in0.0 mm 0.00 in0.0 mm 0.00 in0.0 mm
12:00 PM 66.0°F18.9°C 52.2°F11.2°C 61% 3.0 mph ESE4.8 kmh ESE 6.1 mph9.8 kmh 30.40 in1029.5 mb 0.00 in0.0 mm 0.00 in0.0 mm 0.00 in0.0 mm
12:15 PM 67.1°F19.5°C 52.8°F11.6°C 60% 1.0 mph NNW1.6 kmh NNW 6.1 mph9.8 kmh 30.39 in1029.1 mb 0.00 in0.0 mm 0.00 in0.0 mm 0.00 in0.0 mm
12:30 PM 66.6°F19.2°C 52.3°F11.3°C 60% 4.1 mph E6.6 kmh E 8.1 mph13.0 kmh 30.39 in1029.1 mb 0.00 in0.0 mm 0.00 in0.0 mm 0.00 in0.0 mm
12:45 PM 67.6°F19.8°C 52.4°F11.3°C 58% 5.1 mph NW8.2 kmh NW 9.1 mph14.6 kmh 30.38 in1028.8 mb 0.00 in0.0 mm 0.00 in0.0 mm 0.00 in0.0 mm
01:00 PM 68.1°F20.1°C 51.9°F11.1°C 56% 0.1 mph ENE0.2 kmh ENE 4.1 mph6.6 kmh 30.37 in1028.4 mb 0.00 in0.0 mm 0.00 in0.0 mm 0.00 in0.0 mm
01:15 PM 68.1°F20.1°C 53.3°F11.8°C 59% 3.0 mph NE4.8 kmh NE 9.1 mph14.6 kmh 30.37 in1028.4 mb 0.00 in0.0 mm 0.00 in0.0 mm 0.00 in0.0 mm
01:30 PM 70.0°F21.1°C 52.6°F11.4°C 54% 1.0 mph NE1.6 kmh NE 4.1 mph6.6 kmh 30.36 in1028.1 mb 0.00 in0.0 mm 0.00 in0.0 mm 0.00 in0.0 mm
01:45 PM 69.6°F20.9°C 53.2°F11.8°C 56% 4.1 mph NNE6.6 kmh NNE 4.1 mph6.6 kmh 30.35 in1027.8 mb 0.00 in0.0 mm 0.00 in0.0 mm 0.00 in0.0 mm
02:00 PM 68.9°F20.5°C 53.1°F11.7°C 57% 2.0 mph E3.2 kmh E 2.1 mph3.4 kmh 30.35 in1027.8 mb 0.00 in0.0 mm 0.00 in0.0 mm 0.00 in0.0 mm
02:15 PM 70.1°F21.2°C 52.2°F11.2°C 53% 6.1 mph SE9.8 kmh SE 8.1 mph13.0 kmh 30.34 in1027.4 mb 0.00 in0.0 mm 0.00 in0.0 mm 0.00 in0.0 mm
02:30 PM 69.5°F20.8°C 51.1°F10.6°C 52% 4.1 mph SE6.6 kmh SE 8.1 mph13.0 kmh 30.33 in1027.1 mb 0.00 in0.0 mm 0.00 in0.0 mm 0.00 in0.0 mm
02:45 PM 70.7°F21.5°C 51.7°F10.9°C 51% 5.1 mph ENE8.2 kmh ENE 8.1 mph13.0 kmh 30.33 in1027.1 mb 0.00 in0.0 mm 0.00 in0.0 mm 0.00 in0.0 mm
03:00 PM 70.5°F21.4°C 53.0°F11.7°C 54% 2.0 mph SW3.2 kmh SW 4.1 mph6.6 kmh 30.32 in1026.8 mb 0.00 in0.0 mm 0.00 in0.0 mm 0.00 in0.0 mm
03:15 PM 71.8°F22.1°C 52.7°F11.5°C 51% 3.0 mph ESE4.8 kmh ESE 4.1 mph6.6 kmh 30.32 in1026.8 mb 0.00 in0.0 mm 0.00 in0.0 mm 0.00 in0.0 mm
03:30 PM 71.4°F21.9°C 52.3°F11.3°C 51% 2.0 mph ESE3.2 kmh ESE 3.1 mph5.0 kmh 30.32 in1026.8 mb 0.00 in0.0 mm 0.00 in0.0 mm 0.00 in0.0 mm
03:45 PM 69.8°F21.0°C 51.4°F10.8°C 52% 2.0 mph SE3.2 kmh SE 3.1 mph5.0 kmh 30.31 in1026.4 mb 0.00 in0.0 mm 0.00 in0.0 mm 0.00 in0.0 mm
04:00 PM 68.9°F20.5°C 51.1°F10.6°C 53% 1.0 mph S1.6 kmh S 2.1 mph3.4 kmh 30.31 in1026.4 mb 0.00 in0.0 mm 0.00 in0.0 mm 0.00 in0.0 mm
04:15 PM 68.3°F20.2°C 51.1°F10.6°C 54% 2.0 mph NNW3.2 kmh NNW 6.1 mph9.8 kmh 30.31 in1026.4 mb 0.00 in0.0 mm 0.00 in0.0 mm 0.00 in0.0 mm
04:30 PM 68.6°F20.3°C 51.4°F10.8°C 54% 2.0 mph S3.2 kmh S 3.1 mph5.0 kmh 30.31 in1026.4 mb 0.00 in0.0 mm 0.00 in0.0 mm 0.00 in0.0 mm
04:45 PM 67.5°F19.7°C 51.3°F10.7°C 56% 1.0 mph S1.6 kmh S 2.1 mph3.4 kmh 30.31 in1026.4 mb 0.00 in0.0 mm 0.00 in0.0 mm 0.00 in0.0 mm
05:00 PM 67.7°F19.8°C 51.0°F10.6°C 55% 3.0 mph S4.8 kmh S 4.1 mph6.6 kmh 30.31 in1026.4 mb 0.00 in0.0 mm 0.00 in0.0 mm 0.00 in0.0 mm
05:15 PM 67.9°F19.9°C 50.7°F10.4°C 54% 1.0 mph E1.6 kmh E 3.1 mph5.0 kmh 30.31 in1026.4 mb 0.00 in0.0 mm 0.00 in0.0 mm 0.00 in0.0 mm
05:30 PM 67.6°F19.8°C 50.9°F10.5°C 55% 1.0 mph E1.6 kmh E 2.1 mph3.4 kmh 30.31 in1026.4 mb 0.00 in0.0 mm 0.00 in0.0 mm 0.00 in0.0 mm
05:45 PM 67.4°F19.7°C 51.2°F10.7°C 56% 1.0 mph NNE1.6 kmh NNE 2.1 mph3.4 kmh 30.31 in1026.4 mb 0.00 in0.0 mm 0.00 in0.0 mm 0.00 in0.0 mm
06:00 PM 66.8°F19.3°C 51.6°F10.9°C 58% 3.0 mph E4.8 kmh E 3.1 mph5.0 kmh 30.31 in1026.4 mb 0.00 in0.0 mm 0.00 in0.0 mm 0.00 in0.0 mm
06:15 PM 66.4°F19.1°C 51.2°F10.7°C 58% 2.0 mph NNE3.2 kmh NNE 3.1 mph5.0 kmh 30.31 in1026.4 mb 0.00 in0.0 mm 0.00 in0.0 mm 0.00 in0.0 mm
06:30 PM 65.3°F18.5°C 51.6°F10.9°C 61% 0.1 mph SE0.2 kmh SE 1.1 mph1.8 kmh 30.31 in1026.4 mb 0.00 in0.0 mm 0.00 in0.0 mm 0.00 in0.0 mm
06:45 PM 63.5°F17.5°C 51.6°F10.9°C 65% 1.0 mph E1.6 kmh E 1.1 mph1.8 kmh 30.31 in1026.4 mb 0.00 in0.0 mm 0.00 in0.0 mm 0.00 in0.0 mm
07:00 PM 62.4°F16.9°C 51.7°F10.9°C 68% 0.1 mph E0.2 kmh E 1.1 mph1.8 kmh 30.31 in1026.4 mb 0.00 in0.0 mm 0.00 in0.0 mm 0.00 in0.0 mm
07:15 PM 60.9°F16.1°C 51.1°F10.6°C 70% 0.1 mph E0.2 kmh E 0.1 mph0.2 kmh 30.31 in1026.4 mb 0.00 in0.0 mm 0.00 in0.0 mm 0.00 in0.0 mm
07:30 PM 59.6°F15.3°C 50.6°F10.3°C 72% 0.1 mph E0.2 kmh E 0.1 mph0.2 kmh 30.31 in1026.4 mb 0.00 in0.0 mm 0.00 in0.0 mm 0.00 in0.0 mm
07:45 PM 58.5°F14.7°C 50.6°F10.3°C 75% 0.1 mph E0.2 kmh E 0.1 mph0.2 kmh 30.32 in1026.8 mb 0.00 in0.0 mm 0.00 in0.0 mm 0.00 in0.0 mm
08:00 PM 57.6°F14.2°C 50.4°F10.2°C 77% 0.1 mph E0.2 kmh E 1.1 mph1.8 kmh 30.32 in1026.8 mb 0.00 in0.0 mm 0.00 in0.0 mm 0.00 in0.0 mm
08:15 PM 57.1°F13.9°C 50.6°F10.3°C 79% 0.1 mph E0.2 kmh E 0.1 mph0.2 kmh 30.32 in1026.8 mb 0.00 in0.0 mm 0.00 in0.0 mm 0.00 in0.0 mm
08:30 PM 56.3°F13.5°C 50.5°F10.3°C 81% 0.1 mph E0.2 kmh E 0.1 mph0.2 kmh 30.32 in1026.8 mb 0.00 in0.0 mm 0.00 in0.0 mm 0.00 in0.0 mm
08:45 PM 56.2°F13.4°C 50.8°F10.4°C 82% 0.1 mph E0.2 kmh E 0.1 mph0.2 kmh 30.33 in1027.1 mb 0.00 in0.0 mm 0.00 in0.0 mm 0.00 in0.0 mm
09:00 PM 55.5°F13.1°C 50.4°F10.2°C 83% 0.1 mph E0.2 kmh E 0.1 mph0.2 kmh 30.33 in1027.1 mb 0.00 in0.0 mm 0.00 in0.0 mm 0.00 in0.0 mm
09:15 PM 54.7°F12.6°C 50.6°F10.3°C 86% 0.1 mph E0.2 kmh E 0.1 mph0.2 kmh 30.33 in1027.1 mb 0.00 in0.0 mm 0.00 in0.0 mm 0.00 in0.0 mm
09:30 PM 54.6°F12.6°C 50.8°F10.4°C 87% 0.1 mph E0.2 kmh E 1.1 mph1.8 kmh 30.33 in1027.1 mb 0.00 in0.0 mm 0.00 in0.0 mm 0.00 in0.0 mm
09:45 PM 54.2°F12.3°C 50.7°F10.4°C 88% 0.1 mph NE0.2 kmh NE 1.1 mph1.8 kmh 30.33 in1027.1 mb 0.00 in0.0 mm 0.00 in0.0 mm 0.00 in0.0 mm
10:00 PM 53.6°F12.0°C 50.1°F10.1°C 88% 0.1 mph NE0.2 kmh NE 0.1 mph0.2 kmh 30.33 in1027.1 mb 0.00 in0.0 mm 0.00 in0.0 mm 0.00 in0.0 mm
10:15 PM 53.2°F11.8°C 50.3°F10.2°C 90% 0.1 mph NE0.2 kmh NE 0.1 mph0.2 kmh 30.33 in1027.1 mb 0.00 in0.0 mm 0.00 in0.0 mm 0.00 in0.0 mm
10:30 PM 52.6°F11.4°C 49.7°F9.8°C 90% 0.1 mph NE0.2 kmh NE 2.1 mph3.4 kmh 30.33 in1027.1 mb 0.00 in0.0 mm 0.00 in0.0 mm 0.00 in0.0 mm
10:45 PM 52.3°F11.3°C 49.7°F9.8°C 91% 0.1 mph NE0.2 kmh NE 1.1 mph1.8 kmh 30.33 in1027.1 mb 0.00 in0.0 mm 0.00 in0.0 mm 0.00 in0.0 mm
11:00 PM 51.9°F11.1°C 49.3°F9.6°C 91% 0.1 mph NE0.2 kmh NE 0.1 mph0.2 kmh 30.33 in1027.1 mb 0.00 in0.0 mm 0.00 in0.0 mm 0.00 in0.0 mm
11:15 PM 51.7°F10.9°C 49.1°F9.5°C 91% 0.1 mph NE0.2 kmh NE 0.1 mph0.2 kmh 30.34 in1027.4 mb 0.00 in0.0 mm 0.00 in0.0 mm 0.00 in0.0 mm
11:30 PM 51.3°F10.7°C 49.0°F9.4°C 92% 0.1 mph NE0.2 kmh NE 0.1 mph0.2 kmh 30.34 in1027.4 mb 0.00 in0.0 mm 0.00 in0.0 mm 0.00 in0.0 mm
11:45 PM 51.1°F10.6°C 49.1°F9.5°C 93% 0.1 mph NE0.2 kmh NE 0.1 mph0.2 kmh 30.34 in1027.4 mb 0.00 in0.0 mm 0.00 in0.0 mm 0.00 in0.0 mm